sensor_id;sensor_type;location;lat;lon;timestamp;temperature;humidity
67249;SHT31;63247;54.300;18.592;2023-08-20T00:01:22;20.35;99.99
67249;SHT31;63247;54.300;18.592;2023-08-20T00:03:50;20.30;99.99
67249;SHT31;63247;54.300;18.592;2023-08-20T00:06:15;20.30;99.99
67249;SHT31;63247;54.300;18.592;2023-08-20T00:08:41;20.33;99.99
67249;SHT31;63247;54.300;18.592;2023-08-20T00:11:06;20.42;99.99
67249;SHT31;63247;54.300;18.592;2023-08-20T00:13:32;20.36;99.99
67249;SHT31;63247;54.300;18.592;2023-08-20T00:15:57;20.28;99.99
67249;SHT31;63247;54.300;18.592;2023-08-20T00:18:23;20.30;99.99
67249;SHT31;63247;54.300;18.592;2023-08-20T00:20:48;20.19;99.99
67249;SHT31;63247;54.300;18.592;2023-08-20T00:23:14;20.21;99.99
67249;SHT31;63247;54.300;18.592;2023-08-20T00:25:40;20.09;99.99
67249;SHT31;63247;54.300;18.592;2023-08-20T00:28:05;20.05;99.99
67249;SHT31;63247;54.300;18.592;2023-08-20T00:30:31;20.02;99.99
67249;SHT31;63247;54.300;18.592;2023-08-20T00:32:56;19.99;99.99
67249;SHT31;63247;54.300;18.592;2023-08-20T00:35:21;20.04;99.99
67249;SHT31;63247;54.300;18.592;2023-08-20T00:37:47;19.96;99.99
67249;SHT31;63247;54.300;18.592;2023-08-20T00:40:12;19.98;99.99
67249;SHT31;63247;54.300;18.592;2023-08-20T00:42:38;19.98;99.99
67249;SHT31;63247;54.300;18.592;2023-08-20T00:45:04;19.87;99.99
67249;SHT31;63247;54.300;18.592;2023-08-20T00:47:29;19.87;99.99
67249;SHT31;63247;54.300;18.592;2023-08-20T00:49:55;19.88;99.99
67249;SHT31;63247;54.300;18.592;2023-08-20T00:52:21;19.95;99.99
67249;SHT31;63247;54.300;18.592;2023-08-20T00:54:48;19.85;99.99
67249;SHT31;63247;54.300;18.592;2023-08-20T00:57:14;19.78;99.99
67249;SHT31;63247;54.300;18.592;2023-08-20T00:59:41;19.81;99.99
67249;SHT31;63247;54.300;18.592;2023-08-20T01:02:07;19.79;99.99
67249;SHT31;63247;54.300;18.592;2023-08-20T01:04:32;19.81;99.99
67249;SHT31;63247;54.300;18.592;2023-08-20T01:07:14;19.75;99.99
67249;SHT31;63247;54.300;18.592;2023-08-20T01:12:35;19.73;99.99
67249;SHT31;63247;54.300;18.592;2023-08-20T01:15:01;19.74;99.99
67249;SHT31;63247;54.300;18.592;2023-08-20T01:17:26;19.67;99.99
67249;SHT31;63247;54.300;18.592;2023-08-20T01:19:52;19.70;99.99
67249;SHT31;63247;54.300;18.592;2023-08-20T01:22:33;19.66;99.99
67249;SHT31;63247;54.300;18.592;2023-08-20T01:30:50;19.73;99.99
67249;SHT31;63247;54.300;18.592;2023-08-20T01:33:16;19.58;99.99
67249;SHT31;63247;54.300;18.592;2023-08-20T01:35:41;19.61;99.99
67249;SHT31;63247;54.300;18.592;2023-08-20T01:38:07;19.56;99.99
67249;SHT31;63247;54.300;18.592;2023-08-20T01:40:33;19.61;99.99
67249;SHT31;63247;54.300;18.592;2023-08-20T01:42:58;19.63;99.99
67249;SHT31;63247;54.300;18.592;2023-08-20T01:45:24;19.67;99.99
67249;SHT31;63247;54.300;18.592;2023-08-20T01:47:49;19.57;99.99
67249;SHT31;63247;54.300;18.592;2023-08-20T01:50:15;19.61;99.99
67249;SHT31;63247;54.300;18.592;2023-08-20T01:52:40;19.57;99.99
67249;SHT31;63247;54.300;18.592;2023-08-20T01:55:06;19.56;99.99
67249;SHT31;63247;54.300;18.592;2023-08-20T01:57:31;19.51;99.99
67249;SHT31;63247;54.300;18.592;2023-08-20T01:59:57;19.51;99.99
67249;SHT31;63247;54.300;18.592;2023-08-20T02:02:23;19.50;99.99
67249;SHT31;63247;54.300;18.592;2023-08-20T02:04:48;19.49;99.99
67249;SHT31;63247;54.300;18.592;2023-08-20T02:07:14;19.38;99.99
67249;SHT31;63247;54.300;18.592;2023-08-20T02:09:39;19.49;99.99
67249;SHT31;63247;54.300;18.592;2023-08-20T02:12:04;19.47;99.99
67249;SHT31;63247;54.300;18.592;2023-08-20T02:14:30;19.36;99.99
67249;SHT31;63247;54.300;18.592;2023-08-20T02:16:59;19.33;99.99
67249;SHT31;63247;54.300;18.592;2023-08-20T02:19:25;19.33;99.99
67249;SHT31;63247;54.300;18.592;2023-08-20T02:21:50;19.27;99.99
67249;SHT31;63247;54.300;18.592;2023-08-20T02:24:15;19.33;99.99
67249;SHT31;63247;54.300;18.592;2023-08-20T02:26:40;19.33;99.99
67249;SHT31;63247;54.300;18.592;2023-08-20T02:29:06;19.23;99.99
67249;SHT31;63247;54.300;18.592;2023-08-20T02:31:31;19.24;99.99
67249;SHT31;63247;54.300;18.592;2023-08-20T02:33:56;19.20;99.99
67249;SHT31;63247;54.300;18.592;2023-08-20T02:36:22;19.23;99.99
67249;SHT31;63247;54.300;18.592;2023-08-20T02:38:47;19.36;99.99
67249;SHT31;63247;54.300;18.592;2023-08-20T02:41:12;19.27;99.99
67249;SHT31;63247;54.300;18.592;2023-08-20T02:43:37;19.46;99.99
67249;SHT31;63247;54.300;18.592;2023-08-20T02:46:03;19.36;99.99
67249;SHT31;63247;54.300;18.592;2023-08-20T02:48:29;19.34;99.99
67249;SHT31;63247;54.300;18.592;2023-08-20T02:50:54;19.41;99.99
67249;SHT31;63247;54.300;18.592;2023-08-20T02:53:20;19.36;99.99
67249;SHT31;63247;54.300;18.592;2023-08-20T02:55:46;19.29;99.99
67249;SHT31;63247;54.300;18.592;2023-08-20T02:58:11;19.23;99.99
67249;SHT31;63247;54.300;18.592;2023-08-20T03:00:37;19.16;99.99
67249;SHT31;63247;54.300;18.592;2023-08-20T03:03:02;19.19;99.99
67249;SHT31;63247;54.300;18.592;2023-08-20T03:05:31;19.15;99.99
67249;SHT31;63247;54.300;18.592;2023-08-20T03:07:57;19.02;99.99
67249;SHT31;63247;54.300;18.592;2023-08-20T03:10:22;19.03;99.99
67249;SHT31;63247;54.300;18.592;2023-08-20T03:12:47;18.98;99.99
67249;SHT31;63247;54.300;18.592;2023-08-20T03:15:13;18.99;99.99
67249;SHT31;63247;54.300;18.592;2023-08-20T03:17:38;19.02;99.99
67249;SHT31;63247;54.300;18.592;2023-08-20T03:20:03;19.05;99.99
67249;SHT31;63247;54.300;18.592;2023-08-20T03:22:31;19.06;99.99
67249;SHT31;63247;54.300;18.592;2023-08-20T03:24:56;19.06;99.99
67249;SHT31;63247;54.300;18.592;2023-08-20T03:27:22;19.06;99.99
67249;SHT31;63247;54.300;18.592;2023-08-20T03:29:47;19.03;99.99
67249;SHT31;63247;54.300;18.592;2023-08-20T03:32:12;19.05;99.99
67249;SHT31;63247;54.300;18.592;2023-08-20T03:34:38;19.03;99.99
67249;SHT31;63247;54.300;18.592;2023-08-20T03:37:04;19.05;99.99
67249;SHT31;63247;54.300;18.592;2023-08-20T03:39:30;19.22;99.99
67249;SHT31;63247;54.300;18.592;2023-08-20T03:41:57;19.29;99.99
67249;SHT31;63247;54.300;18.592;2023-08-20T03:44:22;19.36;99.99
67249;SHT31;63247;54.300;18.592;2023-08-20T03:46:48;19.51;99.99
67249;SHT31;63247;54.300;18.592;2023-08-20T03:49:13;19.61;99.99
67249;SHT31;63247;54.300;18.592;2023-08-20T03:51:38;19.77;99.99
67249;SHT31;63247;54.300;18.592;2023-08-20T03:54:04;19.91;99.99
67249;SHT31;63247;54.300;18.592;2023-08-20T03:56:29;20.01;99.99
67249;SHT31;63247;54.300;18.592;2023-08-20T03:58:55;20.14;99.99
67249;SHT31;63247;54.300;18.592;2023-08-20T04:01:20;20.30;99.99
67249;SHT31;63247;54.300;18.592;2023-08-20T04:03:47;20.42;99.99
67249;SHT31;63247;54.300;18.592;2023-08-20T04:06:13;20.60;99.99
67249;SHT31;63247;54.300;18.592;2023-08-20T04:08:38;20.84;99.99
67249;SHT31;63247;54.300;18.592;2023-08-20T04:11:03;21.12;99.99
67249;SHT31;63247;54.300;18.592;2023-08-20T04:13:29;21.35;99.99
67249;SHT31;63247;54.300;18.592;2023-08-20T04:15:55;21.59;99.99
67249;SHT31;63247;54.300;18.592;2023-08-20T04:18:20;21.86;99.99
67249;SHT31;63247;54.300;18.592;2023-08-20T04:20:46;22.01;99.43
67249;SHT31;63247;54.300;18.592;2023-08-20T04:23:11;22.21;99.25
67249;SHT31;63247;54.300;18.592;2023-08-20T04:25:36;22.31;98.89
67249;SHT31;63247;54.300;18.592;2023-08-20T04:28:02;22.51;98.08
67249;SHT31;63247;54.300;18.592;2023-08-20T04:30:27;22.72;97.53
67249;SHT31;63247;54.300;18.592;2023-08-20T04:32:52;23.02;96.43
67249;SHT31;63247;54.300;18.592;2023-08-20T04:35:18;23.23;95.52
67249;SHT31;63247;54.300;18.592;2023-08-20T04:37:43;23.62;94.65
67249;SHT31;63247;54.300;18.592;2023-08-20T04:40:09;23.75;94.00
67249;SHT31;63247;54.300;18.592;2023-08-20T04:42:36;24.02;93.58
67249;SHT31;63247;54.300;18.592;2023-08-20T04:45:01;24.25;92.94
67249;SHT31;63247;54.300;18.592;2023-08-20T04:47:26;24.46;92.10
67249;SHT31;63247;54.300;18.592;2023-08-20T04:49:52;24.54;92.08
67249;SHT31;63247;54.300;18.592;2023-08-20T04:52:17;24.91;91.16
67249;SHT31;63247;54.300;18.592;2023-08-20T04:54:44;25.32;89.88
67249;SHT31;63247;54.300;18.592;2023-08-20T04:57:09;25.63;89.04
67249;SHT31;63247;54.300;18.592;2023-08-20T04:59:34;25.74;88.61
67249;SHT31;63247;54.300;18.592;2023-08-20T05:02:00;26.07;87.85
67249;SHT31;63247;54.300;18.592;2023-08-20T05:04:25;26.17;88.02
67249;SHT31;63247;54.300;18.592;2023-08-20T05:06:50;26.55;87.13
67249;SHT31;63247;54.300;18.592;2023-08-20T05:09:15;26.63;86.50
67249;SHT31;63247;54.300;18.592;2023-08-20T05:11:41;26.89;86.16
67249;SHT31;63247;54.300;18.592;2023-08-20T05:14:07;26.92;85.93
67249;SHT31;63247;54.300;18.592;2023-08-20T05:16:32;27.40;84.93
67249;SHT31;63247;54.300;18.592;2023-08-20T05:18:58;27.50;84.50
67249;SHT31;63247;54.300;18.592;2023-08-20T05:21:23;27.13;85.01
67249;SHT31;63247;54.300;18.592;2023-08-20T05:23:48;27.45;84.07
67249;SHT31;63247;54.300;18.592;2023-08-20T05:26:13;27.16;85.03
67249;SHT31;63247;54.300;18.592;2023-08-20T05:28:39;27.73;83.43
67249;SHT31;63247;54.300;18.592;2023-08-20T05:31:05;27.80;83.54
67249;SHT31;63247;54.300;18.592;2023-08-20T05:33:30;28.19;82.05
67249;SHT31;63247;54.300;18.592;2023-08-20T05:35:56;28.82;81.31
67249;SHT31;63247;54.300;18.592;2023-08-20T05:38:22;29.16;80.79
67249;SHT31;63247;54.300;18.592;2023-08-20T05:40:48;29.67;78.87
67249;SHT31;63247;54.300;18.592;2023-08-20T05:43:14;29.16;79.93
67249;SHT31;63247;54.300;18.592;2023-08-20T05:45:39;28.95;80.10
67249;SHT31;63247;54.300;18.592;2023-08-20T05:48:05;28.67;81.50
67249;SHT31;63247;54.300;18.592;2023-08-20T05:50:30;27.65;84.44
67249;SHT31;63247;54.300;18.592;2023-08-20T05:52:56;26.89;86.92
67249;SHT31;63247;54.300;18.592;2023-08-20T05:55:21;27.52;85.14
67249;SHT31;63247;54.300;18.592;2023-08-20T05:57:47;28.13;82.62
67249;SHT31;63247;54.300;18.592;2023-08-20T06:00:12;27.84;83.22
67249;SHT31;63247;54.300;18.592;2023-08-20T06:02:38;27.00;85.29
67249;SHT31;63247;54.300;18.592;2023-08-20T06:05:04;26.56;87.19
67249;SHT31;63247;54.300;18.592;2023-08-20T06:07:33;26.00;87.82
67249;SHT31;63247;54.300;18.592;2023-08-20T06:09:58;26.31;88.00
67249;SHT31;63247;54.300;18.592;2023-08-20T06:12:24;26.68;86.32
67249;SHT31;63247;54.300;18.592;2023-08-20T06:14:49;27.18;87.29
67249;SHT31;63247;54.300;18.592;2023-08-20T06:17:15;27.24;86.38
67249;SHT31;63247;54.300;18.592;2023-08-20T06:19:40;26.72;86.60
67249;SHT31;63247;54.300;18.592;2023-08-20T06:22:06;26.63;86.98
67249;SHT31;63247;54.300;18.592;2023-08-20T06:24:32;26.42;87.62
67249;SHT31;63247;54.300;18.592;2023-08-20T06:26:57;26.62;86.47
67249;SHT31;63247;54.300;18.592;2023-08-20T06:29:22;26.83;87.16
67249;SHT31;63247;54.300;18.592;2023-08-20T06:31:48;27.30;86.48
67249;SHT31;63247;54.300;18.592;2023-08-20T06:34:14;26.62;87.59
67249;SHT31;63247;54.300;18.592;2023-08-20T06:36:40;26.97;86.59
67249;SHT31;63247;54.300;18.592;2023-08-20T06:39:05;28.98;82.67
67249;SHT31;63247;54.300;18.592;2023-08-20T06:41:31;29.96;79.37
67249;SHT31;63247;54.300;18.592;2023-08-20T06:43:56;30.21;78.61
67249;SHT31;63247;54.300;18.592;2023-08-20T06:46:22;29.94;79.86
67249;SHT31;63247;54.300;18.592;2023-08-20T06:48:49;30.45;78.97
67249;SHT31;63247;54.300;18.592;2023-08-20T06:51:15;31.00;77.52
67249;SHT31;63247;54.300;18.592;2023-08-20T06:53:48;30.93;77.09
67249;SHT31;63247;54.300;18.592;2023-08-20T06:56:16;30.04;79.32
67249;SHT31;63247;54.300;18.592;2023-08-20T06:58:42;30.56;78.18
67249;SHT31;63247;54.300;18.592;2023-08-20T07:01:08;31.64;76.21
67249;SHT31;63247;54.300;18.592;2023-08-20T07:03:41;31.30;76.83
67249;SHT31;63247;54.300;18.592;2023-08-20T07:06:08;32.24;74.80
67249;SHT31;63247;54.300;18.592;2023-08-20T07:08:40;32.77;72.92
67249;SHT31;63247;54.300;18.592;2023-08-20T07:11:06;32.06;74.72
67249;SHT31;63247;54.300;18.592;2023-08-20T07:13:31;31.66;75.62
67249;SHT31;63247;54.300;18.592;2023-08-20T07:15:56;31.06;77.35
67249;SHT31;63247;54.300;18.592;2023-08-20T07:18:22;31.57;75.66
67249;SHT31;63247;54.300;18.592;2023-08-20T07:20:47;31.35;75.79
67249;SHT31;63247;54.300;18.592;2023-08-20T07:23:13;32.29;74.15
67249;SHT31;63247;54.300;18.592;2023-08-20T07:25:39;33.05;73.32
67249;SHT31;63247;54.300;18.592;2023-08-20T07:28:06;34.49;68.79
67249;SHT31;63247;54.300;18.592;2023-08-20T07:30:32;33.29;72.54
67249;SHT31;63247;54.300;18.592;2023-08-20T07:32:57;32.65;73.26
67249;SHT31;63247;54.300;18.592;2023-08-20T07:35:23;31.96;74.40
67249;SHT31;63247;54.300;18.592;2023-08-20T07:37:48;31.76;74.80
67249;SHT31;63247;54.300;18.592;2023-08-20T07:40:13;33.43;70.88
67249;SHT31;63247;54.300;18.592;2023-08-20T07:42:42;32.51;73.52
67249;SHT31;63247;54.300;18.592;2023-08-20T07:45:08;32.89;72.64
67249;SHT31;63247;54.300;18.592;2023-08-20T07:47:36;33.29;72.10
67249;SHT31;63247;54.300;18.592;2023-08-20T07:50:01;33.97;70.64
67249;SHT31;63247;54.300;18.592;2023-08-20T07:52:26;32.44;73.49
67249;SHT31;63247;54.300;18.592;2023-08-20T07:54:52;34.45;70.00
67249;SHT31;63247;54.300;18.592;2023-08-20T07:57:17;32.20;74.44
67249;SHT31;63247;54.300;18.592;2023-08-20T07:59:42;32.81;73.17
67249;SHT31;63247;54.300;18.592;2023-08-20T08:02:08;33.19;71.53
67249;SHT31;63247;54.300;18.592;2023-08-20T08:04:34;34.34;69.33
67249;SHT31;63247;54.300;18.592;2023-08-20T08:06:59;34.99;67.59
67249;SHT31;63247;54.300;18.592;2023-08-20T08:09:30;34.20;70.40
67249;SHT31;63247;54.300;18.592;2023-08-20T08:11:56;32.72;72.47
67249;SHT31;63247;54.300;18.592;2023-08-20T08:14:22;33.96;70.95
67249;SHT31;63247;54.300;18.592;2023-08-20T08:16:48;34.76;68.78
67249;SHT31;63247;54.300;18.592;2023-08-20T08:19:14;34.35;69.96
67249;SHT31;63247;54.300;18.592;2023-08-20T08:21:39;33.14;71.62
67249;SHT31;63247;54.300;18.592;2023-08-20T08:24:04;32.59;73.94
67249;SHT31;63247;54.300;18.592;2023-08-20T08:26:30;32.92;74.19
67249;SHT31;63247;54.300;18.592;2023-08-20T08:28:56;33.60;71.31
67249;SHT31;63247;54.300;18.592;2023-08-20T08:31:21;32.85;73.27
67249;SHT31;63247;54.300;18.592;2023-08-20T08:33:47;32.32;73.79
67249;SHT31;63247;54.300;18.592;2023-08-20T08:36:12;33.39;71.91
67249;SHT31;63247;54.300;18.592;2023-08-20T08:38:38;32.87;73.13
67249;SHT31;63247;54.300;18.592;2023-08-20T08:41:04;34.22;70.17
67249;SHT31;63247;54.300;18.592;2023-08-20T08:43:33;33.41;71.98
67249;SHT31;63247;54.300;18.592;2023-08-20T08:45:59;33.80;70.78
67249;SHT31;63247;54.300;18.592;2023-08-20T08:48:25;33.15;73.30
67249;SHT31;63247;54.300;18.592;2023-08-20T08:50:51;34.65;69.06
67249;SHT31;63247;54.300;18.592;2023-08-20T08:53:17;33.96;69.90
67249;SHT31;63247;54.300;18.592;2023-08-20T08:55:43;35.14;68.06
67249;SHT31;63247;54.300;18.592;2023-08-20T08:58:08;32.87;72.52
67249;SHT31;63247;54.300;18.592;2023-08-20T09:00:33;33.30;71.69
67249;SHT31;63247;54.300;18.592;2023-08-20T09:02:59;34.88;69.19
67249;SHT31;63247;54.300;18.592;2023-08-20T09:05:25;36.09;66.64
67249;SHT31;63247;54.300;18.592;2023-08-20T09:07:56;37.15;63.22
67249;SHT31;63247;54.300;18.592;2023-08-20T09:10:27;33.97;69.09
67249;SHT31;63247;54.300;18.592;2023-08-20T09:12:54;33.21;70.77
67249;SHT31;63247;54.300;18.592;2023-08-20T09:15:22;33.29;70.52
67249;SHT31;63247;54.300;18.592;2023-08-20T09:17:55;35.54;67.17
67249;SHT31;63247;54.300;18.592;2023-08-20T09:20:34;33.81;69.68
67249;SHT31;63247;54.300;18.592;2023-08-20T09:22:59;32.85;70.32
67249;SHT31;63247;54.300;18.592;2023-08-20T09:25:24;33.52;69.92
67249;SHT31;63247;54.300;18.592;2023-08-20T09:27:50;34.79;68.22
67249;SHT31;63247;54.300;18.592;2023-08-20T09:30:18;35.36;67.36
67249;SHT31;63247;54.300;18.592;2023-08-20T09:32:45;37.43;63.11
67249;SHT31;63247;54.300;18.592;2023-08-20T09:35:17;37.17;63.30
67249;SHT31;63247;54.300;18.592;2023-08-20T09:37:43;35.57;67.51
67249;SHT31;63247;54.300;18.592;2023-08-20T09:40:09;33.42;68.73
67249;SHT31;63247;54.300;18.592;2023-08-20T09:42:35;33.45;70.26
67249;SHT31;63247;54.300;18.592;2023-08-20T09:45:02;32.78;69.14
67249;SHT31;63247;54.300;18.592;2023-08-20T09:47:28;33.23;69.24
67249;SHT31;63247;54.300;18.592;2023-08-20T09:49:56;31.93;71.05
67249;SHT31;63247;54.300;18.592;2023-08-20T09:52:33;32.57;71.30
67249;SHT31;63247;54.300;18.592;2023-08-20T09:55:06;31.82;72.29
67249;SHT31;63247;54.300;18.592;2023-08-20T09:57:35;32.63;71.63
67249;SHT31;63247;54.300;18.592;2023-08-20T10:00:01;33.93;71.13
67249;SHT31;63247;54.300;18.592;2023-08-20T10:02:28;32.88;71.19
67249;SHT31;63247;54.300;18.592;2023-08-20T10:04:54;33.36;69.15
67249;SHT31;63247;54.300;18.592;2023-08-20T10:07:20;32.03;72.62
67249;SHT31;63247;54.300;18.592;2023-08-20T10:09:47;32.02;73.83
67249;SHT31;63247;54.300;18.592;2023-08-20T10:12:15;32.45;71.83
67249;SHT31;63247;54.300;18.592;2023-08-20T10:14:41;32.06;72.34
67249;SHT31;63247;54.300;18.592;2023-08-20T10:17:08;31.89;72.69
67249;SHT31;63247;54.300;18.592;2023-08-20T10:19:33;32.80;71.85
67249;SHT31;63247;54.300;18.592;2023-08-20T10:21:59;32.08;71.68
67249;SHT31;63247;54.300;18.592;2023-08-20T10:24:26;31.49;72.34
67249;SHT31;63247;54.300;18.592;2023-08-20T10:27:11;31.81;73.31
67249;SHT31;63247;54.300;18.592;2023-08-20T10:29:40;31.17;74.22
67249;SHT31;63247;54.300;18.592;2023-08-20T10:32:12;31.66;73.74
67249;SHT31;63247;54.300;18.592;2023-08-20T10:34:39;30.89;74.36
67249;SHT31;63247;54.300;18.592;2023-08-20T10:37:14;30.35;76.07
67249;SHT31;63247;54.300;18.592;2023-08-20T10:39:39;30.42;76.66
67249;SHT31;63247;54.300;18.592;2023-08-20T10:45:00;30.14;77.54
67249;SHT31;63247;54.300;18.592;2023-08-20T10:47:44;29.09;80.20
67249;SHT31;63247;54.300;18.592;2023-08-20T10:50:19;28.95;80.78
67249;SHT31;63247;54.300;18.592;2023-08-20T10:52:54;28.75;82.08
67249;SHT31;63247;54.300;18.592;2023-08-20T10:55:23;28.90;81.66
67249;SHT31;63247;54.300;18.592;2023-08-20T10:57:55;29.96;78.95
67249;SHT31;63247;54.300;18.592;2023-08-20T11:00:21;29.39;80.31
67249;SHT31;63247;54.300;18.592;2023-08-20T11:02:46;29.85;82.00
67249;SHT31;63247;54.300;18.592;2023-08-20T11:05:19;28.94;84.68
67249;SHT31;63247;54.300;18.592;2023-08-20T11:07:46;28.98;85.46
67249;SHT31;63247;54.300;18.592;2023-08-20T11:10:13;28.56;86.58
67249;SHT31;63247;54.300;18.592;2023-08-20T11:12:39;27.80;88.83
67249;SHT31;63247;54.300;18.592;2023-08-20T11:15:05;27.24;91.88
67249;SHT31;63247;54.300;18.592;2023-08-20T11:17:33;27.29;90.22
67249;SHT31;63247;54.300;18.592;2023-08-20T11:19:59;26.63;92.64
67249;SHT31;63247;54.300;18.592;2023-08-20T11:22:24;25.93;92.19
67249;SHT31;63247;54.300;18.592;2023-08-20T11:24:50;25.86;93.31
67249;SHT31;63247;54.300;18.592;2023-08-20T11:27:15;25.31;96.62
67249;SHT31;63247;54.300;18.592;2023-08-20T11:29:44;24.84;98.27
67249;SHT31;63247;54.300;18.592;2023-08-20T11:32:10;24.88;97.61
67249;SHT31;63247;54.300;18.592;2023-08-20T11:34:36;24.68;97.76
67249;SHT31;63247;54.300;18.592;2023-08-20T11:37:03;24.02;99.99
67249;SHT31;63247;54.300;18.592;2023-08-20T11:39:29;22.77;99.99
67249;SHT31;63247;54.300;18.592;2023-08-20T11:41:54;22.27;99.99
67249;SHT31;63247;54.300;18.592;2023-08-20T11:44:20;22.43;96.14
67249;SHT31;63247;54.300;18.592;2023-08-20T11:46:51;22.16;97.62
67249;SHT31;63247;54.300;18.592;2023-08-20T11:49:16;22.10;97.87
67249;SHT31;63247;54.300;18.592;2023-08-20T11:51:47;22.14;98.12
67249;SHT31;63247;54.300;18.592;2023-08-20T11:54:15;22.24;97.27
67249;SHT31;63247;54.300;18.592;2023-08-20T11:56:45;22.24;98.88
67249;SHT31;63247;54.300;18.592;2023-08-20T11:59:12;22.22;99.24
67249;SHT31;63247;54.300;18.592;2023-08-20T12:01:37;22.38;97.06
67249;SHT31;63247;54.300;18.592;2023-08-20T12:04:04;22.65;97.21
67249;SHT31;63247;54.300;18.592;2023-08-20T12:06:29;22.45;99.54
67249;SHT31;63247;54.300;18.592;2023-08-20T12:08:56;22.43;98.95
67249;SHT31;63247;54.300;18.592;2023-08-20T12:11:24;22.54;98.26
67249;SHT31;63247;54.300;18.592;2023-08-20T12:13:50;22.56;99.61
67249;SHT31;63247;54.300;18.592;2023-08-20T12:16:15;23.06;98.99
67249;SHT31;63247;54.300;18.592;2023-08-20T12:18:41;23.57;97.76
67249;SHT31;63247;54.300;18.592;2023-08-20T12:21:06;24.57;92.79
67249;SHT31;63247;54.300;18.592;2023-08-20T12:23:32;25.23;91.78
67249;SHT31;63247;54.300;18.592;2023-08-20T12:25:57;25.38;91.35
67249;SHT31;63247;54.300;18.592;2023-08-20T12:28:22;25.50;91.59
67249;SHT31;63247;54.300;18.592;2023-08-20T12:30:47;26.37;88.49
67249;SHT31;63247;54.300;18.592;2023-08-20T12:33:13;26.39;89.08
67249;SHT31;63247;54.300;18.592;2023-08-20T12:35:39;26.75;89.58
67249;SHT31;63247;54.300;18.592;2023-08-20T12:38:04;26.45;87.90
67249;SHT31;63247;54.300;18.592;2023-08-20T12:40:30;27.23;86.75
67249;SHT31;63247;54.300;18.592;2023-08-20T12:42:56;27.59;87.34
67249;SHT31;63247;54.300;18.592;2023-08-20T12:45:21;27.81;87.67
67249;SHT31;63247;54.300;18.592;2023-08-20T12:47:48;27.89;86.42
67249;SHT31;63247;54.300;18.592;2023-08-20T12:50:13;27.84;88.52
67249;SHT31;63247;54.300;18.592;2023-08-20T12:52:39;28.20;86.69
67249;SHT31;63247;54.300;18.592;2023-08-20T12:55:05;28.40;86.13
67249;SHT31;63247;54.300;18.592;2023-08-20T12:57:33;28.19;86.37
67249;SHT31;63247;54.300;18.592;2023-08-20T12:59:59;28.33;86.74
67249;SHT31;63247;54.300;18.592;2023-08-20T13:02:24;28.19;87.49
67249;SHT31;63247;54.300;18.592;2023-08-20T13:04:50;28.12;87.57
67249;SHT31;63247;54.300;18.592;2023-08-20T13:07:16;28.27;87.75
67249;SHT31;63247;54.300;18.592;2023-08-20T13:09:42;28.03;87.96
67249;SHT31;63247;54.300;18.592;2023-08-20T13:12:12;28.05;87.95
67249;SHT31;63247;54.300;18.592;2023-08-20T13:14:41;28.09;87.71
67249;SHT31;63247;54.300;18.592;2023-08-20T13:17:08;27.58;87.70
67249;SHT31;63247;54.300;18.592;2023-08-20T13:19:33;28.01;87.17
67249;SHT31;63247;54.300;18.592;2023-08-20T13:21:58;28.24;86.56
67249;SHT31;63247;54.300;18.592;2023-08-20T13:24:24;28.12;85.59
67249;SHT31;63247;54.300;18.592;2023-08-20T13:26:50;28.16;85.43
67249;SHT31;63247;54.300;18.592;2023-08-20T13:29:16;28.27;84.87
67249;SHT31;63247;54.300;18.592;2023-08-20T13:31:41;28.16;84.85
67249;SHT31;63247;54.300;18.592;2023-08-20T13:34:07;28.16;85.04
67249;SHT31;63247;54.300;18.592;2023-08-20T13:36:32;27.95;85.08
67249;SHT31;63247;54.300;18.592;2023-08-20T13:38:57;27.98;84.51
67249;SHT31;63247;54.300;18.592;2023-08-20T13:41:23;27.86;84.31
67249;SHT31;63247;54.300;18.592;2023-08-20T13:43:48;27.86;84.26
67249;SHT31;63247;54.300;18.592;2023-08-20T13:46:13;27.68;84.46
67249;SHT31;63247;54.300;18.592;2023-08-20T13:48:39;27.92;83.95
67249;SHT31;63247;54.300;18.592;2023-08-20T13:51:04;27.96;83.75
67249;SHT31;63247;54.300;18.592;2023-08-20T13:53:29;28.16;83.45
67249;SHT31;63247;54.300;18.592;2023-08-20T13:55:55;28.02;83.54
67249;SHT31;63247;54.300;18.592;2023-08-20T13:58:20;27.92;83.83
67249;SHT31;63247;54.300;18.592;2023-08-20T14:00:46;27.78;84.09
67249;SHT31;63247;54.300;18.592;2023-08-20T14:03:11;27.78;83.91
67249;SHT31;63247;54.300;18.592;2023-08-20T14:05:36;27.73;83.64
67249;SHT31;63247;54.300;18.592;2023-08-20T14:08:02;27.68;84.30
67249;SHT31;63247;54.300;18.592;2023-08-20T14:10:28;27.64;84.35
67249;SHT31;63247;54.300;18.592;2023-08-20T14:12:53;27.66;84.57
67249;SHT31;63247;54.300;18.592;2023-08-20T14:15:18;27.33;85.05
67249;SHT31;63247;54.300;18.592;2023-08-20T14:17:45;27.11;85.17
67249;SHT31;63247;54.300;18.592;2023-08-20T14:20:10;27.27;85.27
67249;SHT31;63247;54.300;18.592;2023-08-20T14:22:36;27.34;84.83
67249;SHT31;63247;54.300;18.592;2023-08-20T14:25:02;27.11;85.22
67249;SHT31;63247;54.300;18.592;2023-08-20T14:27:29;27.17;84.86
67249;SHT31;63247;54.300;18.592;2023-08-20T14:29:54;27.31;84.73
67249;SHT31;63247;54.300;18.592;2023-08-20T14:32:19;27.22;84.78
67249;SHT31;63247;54.300;18.592;2023-08-20T14:34:46;27.16;84.81
67249;SHT31;63247;54.300;18.592;2023-08-20T14:37:11;26.99;84.33
67249;SHT31;63247;54.300;18.592;2023-08-20T14:39:38;26.97;84.46
67249;SHT31;63247;54.300;18.592;2023-08-20T14:42:04;27.00;84.95
67249;SHT31;63247;54.300;18.592;2023-08-20T14:44:29;27.14;84.26
67249;SHT31;63247;54.300;18.592;2023-08-20T14:46:54;27.11;84.89
67249;SHT31;63247;54.300;18.592;2023-08-20T14:49:20;27.04;84.72
67249;SHT31;63247;54.300;18.592;2023-08-20T14:51:45;27.00;84.34
67249;SHT31;63247;54.300;18.592;2023-08-20T14:54:10;27.00;84.27
67249;SHT31;63247;54.300;18.592;2023-08-20T14:56:36;26.83;84.64
67249;SHT31;63247;54.300;18.592;2023-08-20T14:59:02;26.92;84.38
67249;SHT31;63247;54.300;18.592;2023-08-20T15:01:29;26.89;84.06
67249;SHT31;63247;54.300;18.592;2023-08-20T15:03:54;26.71;83.76
67249;SHT31;63247;54.300;18.592;2023-08-20T15:06:20;26.78;84.02
67249;SHT31;63247;54.300;18.592;2023-08-20T15:08:47;26.76;84.37
67249;SHT31;63247;54.300;18.592;2023-08-20T15:11:12;26.79;84.13
67249;SHT31;63247;54.300;18.592;2023-08-20T15:13:38;26.55;83.16
67249;SHT31;63247;54.300;18.592;2023-08-20T15:16:03;26.44;83.65
67249;SHT31;63247;54.300;18.592;2023-08-20T15:18:29;26.41;83.39
67249;SHT31;63247;54.300;18.592;2023-08-20T15:20:58;26.37;83.95